sensor_id;sensor_type;location;lat;lon;timestamp;P1;durP1;ratioP1;P2;durP2;ratioP2
32501;SDS011;18952;52.516;13.460;2023-08-30T00:01:06;11.15;;;4.03;;
32501;SDS011;18952;52.516;13.460;2023-08-30T00:03:33;6.15;;;3.83;;
32501;SDS011;18952;52.516;13.460;2023-08-30T00:06:05;9.55;;;4.05;;
32501;SDS011;18952;52.516;13.460;2023-08-30T00:08:33;7.18;;;3.85;;
32501;SDS011;18952;52.516;13.460;2023-08-30T00:11:00;5.50;;;4.40;;
32501;SDS011;18952;52.516;13.460;2023-08-30T00:13:29;5.03;;;4.53;;
32501;SDS011;18952;52.516;13.460;2023-08-30T00:15:56;9.82;;;5.00;;
32501;SDS011;18952;52.516;13.460;2023-08-30T00:18:23;6.80;;;5.07;;
32501;SDS011;18952;52.516;13.460;2023-08-30T00:20:50;8.48;;;4.80;;
32501;SDS011;18952;52.516;13.460;2023-08-30T00:23:17;7.10;;;5.22;;
32501;SDS011;18952;52.516;13.460;2023-08-30T00:25:43;11.00;;;5.70;;
32501;SDS011;18952;52.516;13.460;2023-08-30T00:28:10;7.18;;;4.93;;
32501;SDS011;18952;52.516;13.460;2023-08-30T00:30:37;6.65;;;5.00;;
32501;SDS011;18952;52.516;13.460;2023-08-30T00:33:04;7.78;;;5.10;;
32501;SDS011;18952;52.516;13.460;2023-08-30T00:35:32;11.57;;;5.30;;
32501;SDS011;18952;52.516;13.460;2023-08-30T00:37:58;7.88;;;6.07;;
32501;SDS011;18952;52.516;13.460;2023-08-30T00:40:25;7.38;;;5.90;;
32501;SDS011;18952;52.516;13.460;2023-08-30T00:42:53;8.90;;;6.05;;
32501;SDS011;18952;52.516;13.460;2023-08-30T00:45:19;6.82;;;5.55;;
32501;SDS011;18952;52.516;13.460;2023-08-30T00:47:46;8.45;;;5.65;;
32501;SDS011;18952;52.516;13.460;2023-08-30T00:50:13;8.18;;;5.72;;
32501;SDS011;18952;52.516;13.460;2023-08-30T00:52:40;7.50;;;5.88;;
32501;SDS011;18952;52.516;13.460;2023-08-30T00:55:08;8.82;;;5.70;;
32501;SDS011;18952;52.516;13.460;2023-08-30T00:57:35;10.35;;;5.78;;
32501;SDS011;18952;52.516;13.460;2023-08-30T01:00:03;10.80;;;5.72;;
32501;SDS011;18952;52.516;13.460;2023-08-30T01:02:31;6.68;;;5.88;;
32501;SDS011;18952;52.516;13.460;2023-08-30T01:04:59;7.97;;;5.30;;
32501;SDS011;18952;52.516;13.460;2023-08-30T01:07:26;9.57;;;5.68;;
32501;SDS011;18952;52.516;13.460;2023-08-30T01:09:53;7.00;;;5.20;;
32501;SDS011;18952;52.516;13.460;2023-08-30T01:12:24;9.23;;;6.22;;
32501;SDS011;18952;52.516;13.460;2023-08-30T01:15:07;7.97;;;5.93;;
32501;SDS011;18952;52.516;13.460;2023-08-30T01:17:39;9.23;;;5.70;;
32501;SDS011;18952;52.516;13.460;2023-08-30T01:20:07;11.23;;;5.93;;
32501;SDS011;18952;52.516;13.460;2023-08-30T01:28:03;6.07;;;5.47;;
32501;SDS011;18952;52.516;13.460;2023-08-30T01:30:32;8.48;;;5.80;;
32501;SDS011;18952;52.516;13.460;2023-08-30T01:33:00;7.43;;;5.15;;
32501;SDS011;18952;52.516;13.460;2023-08-30T01:38:53;6.32;;;4.97;;
32501;SDS011;18952;52.516;13.460;2023-08-30T01:41:20;12.27;;;5.32;;
32501;SDS011;18952;52.516;13.460;2023-08-30T01:43:47;11.23;;;5.53;;
32501;SDS011;18952;52.516;13.460;2023-08-30T01:46:15;10.52;;;6.22;;
32501;SDS011;18952;52.516;13.460;2023-08-30T01:48:46;7.45;;;5.53;;
32501;SDS011;18952;52.516;13.460;2023-08-30T01:51:16;8.20;;;5.68;;
32501;SDS011;18952;52.516;13.460;2023-08-30T01:53:44;7.32;;;6.60;;
32501;SDS011;18952;52.516;13.460;2023-08-30T01:56:13;10.35;;;7.00;;
32501;SDS011;18952;52.516;13.460;2023-08-30T01:58:42;8.85;;;7.95;;
32501;SDS011;18952;52.516;13.460;2023-08-30T02:01:09;9.55;;;7.80;;
32501;SDS011;18952;52.516;13.460;2023-08-30T02:03:36;8.70;;;7.80;;
32501;SDS011;18952;52.516;13.460;2023-08-30T02:06:07;10.15;;;7.70;;
32501;SDS011;18952;52.516;13.460;2023-08-30T02:08:38;8.57;;;7.10;;
32501;SDS011;18952;52.516;13.460;2023-08-30T02:11:15;9.73;;;7.50;;
32501;SDS011;18952;52.516;13.460;2023-08-30T02:13:45;7.18;;;6.47;;
32501;SDS011;18952;52.516;13.460;2023-08-30T02:16:13;11.35;;;6.47;;
32501;SDS011;18952;52.516;13.460;2023-08-30T02:18:42;7.35;;;6.60;;
32501;SDS011;18952;52.516;13.460;2023-08-30T02:21:09;8.30;;;5.70;;
32501;SDS011;18952;52.516;13.460;2023-08-30T02:23:36;6.00;;;5.32;;
32501;SDS011;18952;52.516;13.460;2023-08-30T02:26:03;8.77;;;6.60;;
32501;SDS011;18952;52.516;13.460;2023-08-30T02:28:30;6.03;;;5.40;;
32501;SDS011;18952;52.516;13.460;2023-08-30T02:30:56;7.68;;;4.88;;
32501;SDS011;18952;52.516;13.460;2023-08-30T02:33:23;9.35;;;5.80;;
32501;SDS011;18952;52.516;13.460;2023-08-30T02:35:50;6.82;;;5.50;;
32501;SDS011;18952;52.516;13.460;2023-08-30T02:38:17;6.65;;;5.40;;
32501;SDS011;18952;52.516;13.460;2023-08-30T02:40:44;7.82;;;5.65;;
32501;SDS011;18952;52.516;13.460;2023-08-30T02:43:11;8.13;;;5.40;;
32501;SDS011;18952;52.516;13.460;2023-08-30T02:45:37;8.20;;;4.55;;
32501;SDS011;18952;52.516;13.460;2023-08-30T02:48:04;5.55;;;4.70;;
32501;SDS011;18952;52.516;13.460;2023-08-30T02:50:32;5.18;;;4.70;;
32501;SDS011;18952;52.516;13.460;2023-08-30T02:52:59;6.00;;;4.60;;
32501;SDS011;18952;52.516;13.460;2023-08-30T02:55:26;5.05;;;4.30;;
32501;SDS011;18952;52.516;13.460;2023-08-30T02:57:53;5.40;;;4.60;;
32501;SDS011;18952;52.516;13.460;2023-08-30T03:00:20;6.50;;;4.97;;
32501;SDS011;18952;52.516;13.460;2023-08-30T03:02:46;5.03;;;4.53;;
32501;SDS011;18952;52.516;13.460;2023-08-30T03:05:14;5.60;;;4.63;;
32501;SDS011;18952;52.516;13.460;2023-08-30T03:07:41;5.25;;;4.80;;
32501;SDS011;18952;52.516;13.460;2023-08-30T03:10:08;6.05;;;4.90;;
32501;SDS011;18952;52.516;13.460;2023-08-30T03:12:35;6.22;;;4.97;;
32501;SDS011;18952;52.516;13.460;2023-08-30T03:15:02;8.82;;;5.20;;
32501;SDS011;18952;52.516;13.460;2023-08-30T03:17:29;6.05;;;5.28;;
32501;SDS011;18952;52.516;13.460;2023-08-30T03:19:58;7.65;;;5.10;;
32501;SDS011;18952;52.516;13.460;2023-08-30T03:22:25;6.40;;;5.03;;
32501;SDS011;18952;52.516;13.460;2023-08-30T03:24:52;5.57;;;5.07;;
32501;SDS011;18952;52.516;13.460;2023-08-30T03:27:18;5.72;;;5.00;;
32501;SDS011;18952;52.516;13.460;2023-08-30T03:29:45;8.15;;;5.25;;
32501;SDS011;18952;52.516;13.460;2023-08-30T03:32:19;7.25;;;5.40;;
32501;SDS011;18952;52.516;13.460;2023-08-30T03:34:47;9.05;;;5.28;;
32501;SDS011;18952;52.516;13.460;2023-08-30T03:37:14;7.40;;;5.60;;
32501;SDS011;18952;52.516;13.460;2023-08-30T03:39:41;7.60;;;5.88;;
32501;SDS011;18952;52.516;13.460;2023-08-30T03:42:08;7.85;;;5.30;;
32501;SDS011;18952;52.516;13.460;2023-08-30T03:44:37;11.57;;;5.45;;
32501;SDS011;18952;52.516;13.460;2023-08-30T03:47:04;9.55;;;5.28;;
32501;SDS011;18952;52.516;13.460;2023-08-30T03:49:31;7.50;;;5.57;;
32501;SDS011;18952;52.516;13.460;2023-08-30T03:51:58;5.60;;;5.10;;
32501;SDS011;18952;52.516;13.460;2023-08-30T03:54:26;5.68;;;4.90;;
32501;SDS011;18952;52.516;13.460;2023-08-30T03:56:53;7.45;;;4.97;;
32501;SDS011;18952;52.516;13.460;2023-08-30T03:59:20;9.30;;;6.18;;
32501;SDS011;18952;52.516;13.460;2023-08-30T04:01:46;7.28;;;5.15;;
32501;SDS011;18952;52.516;13.460;2023-08-30T04:04:14;5.68;;;5.15;;
32501;SDS011;18952;52.516;13.460;2023-08-30T04:06:40;8.55;;;5.60;;
32501;SDS011;18952;52.516;13.460;2023-08-30T04:09:07;7.88;;;6.03;;
32501;SDS011;18952;52.516;13.460;2023-08-30T04:11:34;8.20;;;5.28;;
32501;SDS011;18952;52.516;13.460;2023-08-30T04:14:01;6.45;;;5.47;;
32501;SDS011;18952;52.516;13.460;2023-08-30T04:16:28;6.30;;;5.50;;
32501;SDS011;18952;52.516;13.460;2023-08-30T04:18:55;6.38;;;5.70;;
32501;SDS011;18952;52.516;13.460;2023-08-30T04:21:23;6.80;;;6.00;;
32501;SDS011;18952;52.516;13.460;2023-08-30T04:23:50;6.93;;;6.22;;
32501;SDS011;18952;52.516;13.460;2023-08-30T04:26:17;7.70;;;6.00;;
32501;SDS011;18952;52.516;13.460;2023-08-30T04:28:43;7.32;;;6.18;;
32501;SDS011;18952;52.516;13.460;2023-08-30T04:31:10;7.68;;;5.72;;
32501;SDS011;18952;52.516;13.460;2023-08-30T04:33:37;10.98;;;6.57;;
32501;SDS011;18952;52.516;13.460;2023-08-30T04:36:04;9.18;;;6.13;;
32501;SDS011;18952;52.516;13.460;2023-08-30T04:38:34;9.40;;;5.82;;
32501;SDS011;18952;52.516;13.460;2023-08-30T04:41:10;9.73;;;6.07;;
32501;SDS011;18952;52.516;13.460;2023-08-30T04:43:37;8.85;;;5.95;;
32501;SDS011;18952;52.516;13.460;2023-08-30T04:46:06;6.38;;;5.57;;
32501;SDS011;18952;52.516;13.460;2023-08-30T04:48:33;7.47;;;5.85;;
32501;SDS011;18952;52.516;13.460;2023-08-30T04:51:03;7.30;;;5.15;;
32501;SDS011;18952;52.516;13.460;2023-08-30T04:53:30;9.60;;;5.97;;
32501;SDS011;18952;52.516;13.460;2023-08-30T04:55:57;6.70;;;5.53;;
32501;SDS011;18952;52.516;13.460;2023-08-30T04:58:25;6.25;;;5.63;;
32501;SDS011;18952;52.516;13.460;2023-08-30T05:00:51;9.40;;;6.07;;
32501;SDS011;18952;52.516;13.460;2023-08-30T05:03:20;10.95;;;5.97;;
32501;SDS011;18952;52.516;13.460;2023-08-30T05:05:47;11.20;;;6.18;;
32501;SDS011;18952;52.516;13.460;2023-08-30T05:08:14;9.38;;;6.35;;
32501;SDS011;18952;52.516;13.460;2023-08-30T05:10:41;11.27;;;5.80;;
32501;SDS011;18952;52.516;13.460;2023-08-30T05:13:08;7.88;;;5.18;;
32501;SDS011;18952;52.516;13.460;2023-08-30T05:15:35;7.03;;;5.45;;
32501;SDS011;18952;52.516;13.460;2023-08-30T05:18:01;7.65;;;5.90;;
32501;SDS011;18952;52.516;13.460;2023-08-30T05:20:29;8.82;;;5.78;;
32501;SDS011;18952;52.516;13.460;2023-08-30T05:22:55;6.80;;;5.72;;
32501;SDS011;18952;52.516;13.460;2023-08-30T05:25:23;8.85;;;5.57;;
32501;SDS011;18952;52.516;13.460;2023-08-30T05:27:50;5.45;;;4.90;;
32501;SDS011;18952;52.516;13.460;2023-08-30T05:30:17;6.78;;;4.85;;
32501;SDS011;18952;52.516;13.460;2023-08-30T05:32:43;5.63;;;5.03;;
32501;SDS011;18952;52.516;13.460;2023-08-30T05:35:10;7.60;;;5.50;;
32501;SDS011;18952;52.516;13.460;2023-08-30T05:37:37;6.53;;;5.20;;
32501;SDS011;18952;52.516;13.460;2023-08-30T05:40:04;7.63;;;5.88;;
32501;SDS011;18952;52.516;13.460;2023-08-30T05:42:32;7.32;;;5.45;;
32501;SDS011;18952;52.516;13.460;2023-08-30T05:44:59;6.72;;;6.00;;
32501;SDS011;18952;52.516;13.460;2023-08-30T05:47:26;9.60;;;6.57;;
32501;SDS011;18952;52.516;13.460;2023-08-30T05:49:53;7.53;;;5.40;;
32501;SDS011;18952;52.516;13.460;2023-08-30T05:52:20;10.32;;;6.05;;
32501;SDS011;18952;52.516;13.460;2023-08-30T05:54:47;8.95;;;5.97;;
32501;SDS011;18952;52.516;13.460;2023-08-30T05:57:14;8.38;;;6.07;;
32501;SDS011;18952;52.516;13.460;2023-08-30T05:59:41;11.20;;;5.50;;
32501;SDS011;18952;52.516;13.460;2023-08-30T06:02:08;6.57;;;5.53;;
32501;SDS011;18952;52.516;13.460;2023-08-30T06:04:35;9.43;;;5.63;;
32501;SDS011;18952;52.516;13.460;2023-08-30T06:07:02;12.25;;;6.55;;
32501;SDS011;18952;52.516;13.460;2023-08-30T06:09:28;9.52;;;5.40;;
32501;SDS011;18952;52.516;13.460;2023-08-30T06:11:55;8.55;;;5.50;;
32501;SDS011;18952;52.516;13.460;2023-08-30T06:14:23;10.93;;;5.55;;
32501;SDS011;18952;52.516;13.460;2023-08-30T06:16:50;8.00;;;5.80;;
32501;SDS011;18952;52.516;13.460;2023-08-30T06:19:17;11.00;;;5.75;;
32501;SDS011;18952;52.516;13.460;2023-08-30T06:21:43;9.77;;;5.93;;
32501;SDS011;18952;52.516;13.460;2023-08-30T06:24:10;10.57;;;6.07;;
32501;SDS011;18952;52.516;13.460;2023-08-30T06:26:37;9.02;;;5.90;;
32501;SDS011;18952;52.516;13.460;2023-08-30T06:29:04;10.40;;;6.28;;
32501;SDS011;18952;52.516;13.460;2023-08-30T06:31:31;8.15;;;5.18;;
32501;SDS011;18952;52.516;13.460;2023-08-30T06:33:58;9.20;;;5.25;;
32501;SDS011;18952;52.516;13.460;2023-08-30T06:36:24;7.43;;;4.32;;
32501;SDS011;18952;52.516;13.460;2023-08-30T06:38:51;12.40;;;5.32;;
32501;SDS011;18952;52.516;13.460;2023-08-30T06:41:18;14.10;;;4.68;;
32501;SDS011;18952;52.516;13.460;2023-08-30T06:43:45;6.75;;;4.22;;
32501;SDS011;18952;52.516;13.460;2023-08-30T06:46:12;7.43;;;4.20;;
32501;SDS011;18952;52.516;13.460;2023-08-30T06:48:39;9.30;;;4.38;;
32501;SDS011;18952;52.516;13.460;2023-08-30T06:51:05;10.40;;;3.75;;
32501;SDS011;18952;52.516;13.460;2023-08-30T06:53:32;8.77;;;3.40;;
32501;SDS011;18952;52.516;13.460;2023-08-30T06:55:59;6.25;;;3.50;;
32501;SDS011;18952;52.516;13.460;2023-08-30T06:58:27;11.45;;;2.92;;
32501;SDS011;18952;52.516;13.460;2023-08-30T07:00:56;7.45;;;3.17;;
32501;SDS011;18952;52.516;13.460;2023-08-30T07:03:23;7.68;;;3.15;;
32501;SDS011;18952;52.516;13.460;2023-08-30T07:05:51;4.38;;;2.78;;
32501;SDS011;18952;52.516;13.460;2023-08-30T07:08:18;3.95;;;2.35;;
32501;SDS011;18952;52.516;13.460;2023-08-30T07:10:45;4.45;;;2.50;;
32501;SDS011;18952;52.516;13.460;2023-08-30T07:13:11;4.18;;;2.20;;
32501;SDS011;18952;52.516;13.460;2023-08-30T07:15:39;3.10;;;2.40;;
32501;SDS011;18952;52.516;13.460;2023-08-30T07:18:06;4.65;;;2.88;;
32501;SDS011;18952;52.516;13.460;2023-08-30T07:20:34;4.82;;;2.42;;
32501;SDS011;18952;52.516;13.460;2023-08-30T07:23:01;3.92;;;2.60;;
32501;SDS011;18952;52.516;13.460;2023-08-30T07:25:31;6.90;;;2.65;;
32501;SDS011;18952;52.516;13.460;2023-08-30T07:27:59;3.85;;;2.30;;
32501;SDS011;18952;52.516;13.460;2023-08-30T07:30:26;7.38;;;2.30;;
32501;SDS011;18952;52.516;13.460;2023-08-30T07:32:53;4.00;;;2.60;;
32501;SDS011;18952;52.516;13.460;2023-08-30T07:35:20;3.83;;;2.75;;
32501;SDS011;18952;52.516;13.460;2023-08-30T07:37:47;3.33;;;2.63;;
32501;SDS011;18952;52.516;13.460;2023-08-30T07:40:14;4.53;;;2.70;;
32501;SDS011;18952;52.516;13.460;2023-08-30T07:42:41;7.75;;;2.47;;
32501;SDS011;18952;52.516;13.460;2023-08-30T07:45:07;6.20;;;2.08;;
32501;SDS011;18952;52.516;13.460;2023-08-30T07:47:35;3.40;;;2.10;;
32501;SDS011;18952;52.516;13.460;2023-08-30T07:50:03;6.18;;;2.40;;
32501;SDS011;18952;52.516;13.460;2023-08-30T07:52:31;7.82;;;3.30;;
32501;SDS011;18952;52.516;13.460;2023-08-30T07:55:10;4.78;;;2.20;;
32501;SDS011;18952;52.516;13.460;2023-08-30T07:57:37;4.72;;;2.08;;
32501;SDS011;18952;52.516;13.460;2023-08-30T08:00:04;5.88;;;2.80;;
32501;SDS011;18952;52.516;13.460;2023-08-30T08:02:34;5.28;;;2.30;;
32501;SDS011;18952;52.516;13.460;2023-08-30T08:05:01;6.20;;;2.50;;
32501;SDS011;18952;52.516;13.460;2023-08-30T08:07:28;5.25;;;2.80;;
32501;SDS011;18952;52.516;13.460;2023-08-30T08:09:56;6.10;;;2.22;;
32501;SDS011;18952;52.516;13.460;2023-08-30T08:12:23;6.22;;;2.50;;
32501;SDS011;18952;52.516;13.460;2023-08-30T08:14:51;3.78;;;2.22;;
32501;SDS011;18952;52.516;13.460;2023-08-30T08:17:18;3.90;;;2.08;;
32501;SDS011;18952;52.516;13.460;2023-08-30T08:19:44;5.50;;;2.45;;
32501;SDS011;18952;52.516;13.460;2023-08-30T08:22:11;6.13;;;3.42;;
32501;SDS011;18952;52.516;13.460;2023-08-30T08:24:38;5.82;;;3.50;;
32501;SDS011;18952;52.516;13.460;2023-08-30T08:27:05;11.57;;;4.63;;
32501;SDS011;18952;52.516;13.460;2023-08-30T08:29:32;5.13;;;2.95;;
32501;SDS011;18952;52.516;13.460;2023-08-30T08:31:59;4.85;;;2.80;;
32501;SDS011;18952;52.516;13.460;2023-08-30T08:34:26;4.18;;;1.95;;
32501;SDS011;18952;52.516;13.460;2023-08-30T08:36:53;10.93;;;2.80;;
32501;SDS011;18952;52.516;13.460;2023-08-30T08:39:19;4.25;;;1.92;;
32501;SDS011;18952;52.516;13.460;2023-08-30T08:41:46;2.90;;;2.00;;
32501;SDS011;18952;52.516;13.460;2023-08-30T08:44:13;3.55;;;2.20;;
32501;SDS011;18952;52.516;13.460;2023-08-30T08:46:40;4.53;;;2.10;;
32501;SDS011;18952;52.516;13.460;2023-08-30T08:51:37;4.57;;;1.90;;
32501;SDS011;18952;52.516;13.460;2023-08-30T08:54:05;4.75;;;2.00;;
32501;SDS011;18952;52.516;13.460;2023-08-30T08:56:32;3.72;;;1.90;;
32501;SDS011;18952;52.516;13.460;2023-08-30T08:59:00;3.63;;;1.88;;
32501;SDS011;18952;52.516;13.460;2023-08-30T09:01:27;3.25;;;1.95;;
32501;SDS011;18952;52.516;13.460;2023-08-30T09:04:04;5.50;;;2.00;;
32501;SDS011;18952;52.516;13.460;2023-08-30T09:06:31;7.03;;;2.42;;
32501;SDS011;18952;52.516;13.460;2023-08-30T09:08:58;5.22;;;2.13;;
32501;SDS011;18952;52.516;13.460;2023-08-30T09:11:32;4.03;;;2.28;;
32501;SDS011;18952;52.516;13.460;2023-08-30T09:14:02;4.22;;;2.45;;
32501;SDS011;18952;52.516;13.460;2023-08-30T09:16:29;7.15;;;2.15;;
32501;SDS011;18952;52.516;13.460;2023-08-30T09:21:35;7.97;;;2.33;;
32501;SDS011;18952;52.516;13.460;2023-08-30T09:24:03;4.40;;;2.70;;
32501;SDS011;18952;52.516;13.460;2023-08-30T09:26:32;4.63;;;2.33;;
32501;SDS011;18952;52.516;13.460;2023-08-30T09:31:39;4.60;;;2.42;;
32501;SDS011;18952;52.516;13.460;2023-08-30T09:34:06;4.70;;;2.50;;
32501;SDS011;18952;52.516;13.460;2023-08-30T09:36:36;4.38;;;2.78;;
32501;SDS011;18952;52.516;13.460;2023-08-30T09:39:11;6.50;;;3.90;;
32501;SDS011;18952;52.516;13.460;2023-08-30T09:41:41;3.55;;;2.63;;
32501;SDS011;18952;52.516;13.460;2023-08-30T09:44:09;7.10;;;2.60;;
32501;SDS011;18952;52.516;13.460;2023-08-30T09:46:43;4.63;;;1.88;;
32501;SDS011;18952;52.516;13.460;2023-08-30T09:49:21;3.35;;;1.88;;
32501;SDS011;18952;52.516;13.460;2023-08-30T09:51:52;6.38;;;3.13;;
32501;SDS011;18952;52.516;13.460;2023-08-30T09:54:21;3.83;;;2.42;;
32501;SDS011;18952;52.516;13.460;2023-08-30T09:56:53;3.03;;;1.90;;
32501;SDS011;18952;52.516;13.460;2023-08-30T09:59:21;4.35;;;2.10;;
32501;SDS011;18952;52.516;13.460;2023-08-30T10:01:49;7.25;;;2.25;;
32501;SDS011;18952;52.516;13.460;2023-08-30T10:04:17;7.32;;;2.20;;
32501;SDS011;18952;52.516;13.460;2023-08-30T10:06:46;7.05;;;2.63;;
32501;SDS011;18952;52.516;13.460;2023-08-30T10:09:13;3.55;;;2.15;;
32501;SDS011;18952;52.516;13.460;2023-08-30T10:11:45;4.85;;;1.70;;
32501;SDS011;18952;52.516;13.460;2023-08-30T10:14:12;3.80;;;1.63;;
32501;SDS011;18952;52.516;13.460;2023-08-30T10:16:43;4.68;;;2.05;;
32501;SDS011;18952;52.516;13.460;2023-08-30T10:19:26;5.38;;;1.90;;
32501;SDS011;18952;52.516;13.460;2023-08-30T10:22:03;3.88;;;2.08;;
32501;SDS011;18952;52.516;13.460;2023-08-30T10:24:36;3.05;;;1.52;;
32501;SDS011;18952;52.516;13.460;2023-08-30T10:27:30;4.65;;;1.77;;
32501;SDS011;18952;52.516;13.460;2023-08-30T10:29:59;2.47;;;1.58;;
32501;SDS011;18952;52.516;13.460;2023-08-30T10:32:28;3.53;;;1.50;;
32501;SDS011;18952;52.516;13.460;2023-08-30T10:34:55;5.10;;;2.10;;
32501;SDS011;18952;52.516;13.460;2023-08-30T10:37:22;4.53;;;2.20;;
32501;SDS011;18952;52.516;13.460;2023-08-30T10:39:50;5.20;;;2.15;;
32501;SDS011;18952;52.516;13.460;2023-08-30T10:42:21;6.35;;;2.03;;
32501;SDS011;18952;52.516;13.460;2023-08-30T10:44:56;3.83;;;1.77;;
32501;SDS011;18952;52.516;13.460;2023-08-30T10:47:38;4.25;;;2.33;;
32501;SDS011;18952;52.516;13.460;2023-08-30T10:50:10;3.50;;;1.92;;
32501;SDS011;18952;52.516;13.460;2023-08-30T10:52:38;4.53;;;1.77;;
32501;SDS011;18952;52.516;13.460;2023-08-30T10:55:09;4.22;;;2.20;;
32501;SDS011;18952;52.516;13.460;2023-08-30T10:57:44;5.32;;;2.15;;
32501;SDS011;18952;52.516;13.460;2023-08-30T11:02:44;6.28;;;2.28;;
32501;SDS011;18952;52.516;13.460;2023-08-30T11:05:12;6.68;;;2.22;;
32501;SDS011;18952;52.516;13.460;2023-08-30T11:07:39;4.60;;;2.10;;
32501;SDS011;18952;52.516;13.460;2023-08-30T11:10:06;8.85;;;2.60;;
32501;SDS011;18952;52.516;13.460;2023-08-30T11:12:33;4.50;;;2.33;;
32501;SDS011;18952;52.516;13.460;2023-08-30T11:15:00;3.33;;;2.00;;
32501;SDS011;18952;52.516;13.460;2023-08-30T11:17:27;3.22;;;1.95;;
32501;SDS011;18952;52.516;13.460;2023-08-30T11:19:58;3.50;;;2.00;;
32501;SDS011;18952;52.516;13.460;2023-08-30T11:22:45;5.45;;;2.40;;
32501;SDS011;18952;52.516;13.460;2023-08-30T11:25:13;4.68;;;2.53;;
32501;SDS011;18952;52.516;13.460;2023-08-30T11:27:41;10.63;;;2.17;;
32501;SDS011;18952;52.516;13.460;2023-08-30T11:30:08;14.98;;;2.35;;
32501;SDS011;18952;52.516;13.460;2023-08-30T11:32:37;3.05;;;1.90;;
32501;SDS011;18952;52.516;13.460;2023-08-30T11:35:05;5.32;;;1.98;;
32501;SDS011;18952;52.516;13.460;2023-08-30T11:37:33;3.05;;;1.90;;
32501;SDS011;18952;52.516;13.460;2023-08-30T11:40:01;5.03;;;2.55;;
32501;SDS011;18952;52.516;13.460;2023-08-30T11:42:30;4.47;;;2.13;;
32501;SDS011;18952;52.516;13.460;2023-08-30T11:44:57;3.65;;;2.17;;
32501;SDS011;18952;52.516;13.460;2023-08-30T11:47:25;4.80;;;2.47;;
32501;SDS011;18952;52.516;13.460;2023-08-30T11:49:53;3.20;;;1.70;;
32501;SDS011;18952;52.516;13.460;2023-08-30T11:52:22;2.63;;;1.75;;
32501;SDS011;18952;52.516;13.460;2023-08-30T11:54:51;2.53;;;1.60;;
32501;SDS011;18952;52.516;13.460;2023-08-30T11:57:19;4.40;;;1.77;;
32501;SDS011;18952;52.516;13.460;2023-08-30T11:59:46;3.42;;;1.77;;
32501;SDS011;18952;52.516;13.460;2023-08-30T12:02:13;3.33;;;1.80;;
32501;SDS011;18952;52.516;13.460;2023-08-30T12:04:41;3.67;;;1.80;;
32501;SDS011;18952;52.516;13.460;2023-08-30T12:07:08;6.32;;;2.03;;
32501;SDS011;18952;52.516;13.460;2023-08-30T12:09:35;4.05;;;1.92;;
32501;SDS011;18952;52.516;13.460;2023-08-30T12:12:11;3.33;;;2.00;;
32501;SDS011;18952;52.516;13.460;2023-08-30T12:14:38;2.28;;;1.30;;
32501;SDS011;18952;52.516;13.460;2023-08-30T12:17:05;3.33;;;1.38;;
32501;SDS011;18952;52.516;13.460;2023-08-30T12:19:32;4.18;;;1.73;;
32501;SDS011;18952;52.516;13.460;2023-08-30T12:22:06;4.50;;;1.60;;
32501;SDS011;18952;52.516;13.460;2023-08-30T12:24:40;2.53;;;1.70;;
32501;SDS011;18952;52.516;13.460;2023-08-30T12:27:09;5.80;;;2.25;;
32501;SDS011;18952;52.516;13.460;2023-08-30T12:29:36;3.17;;;1.83;;
32501;SDS011;18952;52.516;13.460;2023-08-30T12:32:03;2.05;;;1.27;;
32501;SDS011;18952;52.516;13.460;2023-08-30T12:34:30;3.63;;;1.55;;
32501;SDS011;18952;52.516;13.460;2023-08-30T12:36:57;2.65;;;1.80;;
32501;SDS011;18952;52.516;13.460;2023-08-30T12:39:26;2.50;;;1.52;;
32501;SDS011;18952;52.516;13.460;2023-08-30T12:41:53;3.92;;;2.00;;
32501;SDS011;18952;52.516;13.460;2023-08-30T12:44:20;3.85;;;2.38;;
32501;SDS011;18952;52.516;13.460;2023-08-30T12:46:47;5.97;;;1.92;;
32501;SDS011;18952;52.516;13.460;2023-08-30T12:49:13;4.85;;;2.00;;
32501;SDS011;18952;52.516;13.460;2023-08-30T12:51:40;2.30;;;1.50;;
32501;SDS011;18952;52.516;13.460;2023-08-30T12:54:07;3.90;;;1.60;;
32501;SDS011;18952;52.516;13.460;2023-08-30T12:56:34;3.97;;;1.98;;
32501;SDS011;18952;52.516;13.460;2023-08-30T12:59:01;5.03;;;1.92;;
32501;SDS011;18952;52.516;13.460;2023-08-30T13:01:27;2.22;;;1.55;;
32501;SDS011;18952;52.516;13.460;2023-08-30T13:03:54;3.20;;;1.80;;
32501;SDS011;18952;52.516;13.460;2023-08-30T13:06:21;4.32;;;1.80;;
32501;SDS011;18952;52.516;13.460;2023-08-30T13:08:48;4.00;;;1.90;;
32501;SDS011;18952;52.516;13.460;2023-08-30T13:11:15;4.65;;;2.40;;
32501;SDS011;18952;52.516;13.460;2023-08-30T13:13:42;2.75;;;2.00;;
32501;SDS011;18952;52.516;13.460;2023-08-30T13:16:08;8.45;;;2.03;;
32501;SDS011;18952;52.516;13.460;2023-08-30T13:18:35;5.30;;;2.38;;
32501;SDS011;18952;52.516;13.460;2023-08-30T13:21:02;3.17;;;1.65;;
32501;SDS011;18952;52.516;13.460;2023-08-30T13:23:29;9.65;;;1.58;;
32501;SDS011;18952;52.516;13.460;2023-08-30T13:25:56;4.38;;;2.00;;
32501;SDS011;18952;52.516;13.460;2023-08-30T13:28:23;3.00;;;2.22;;
32501;SDS011;18952;52.516;13.460;2023-08-30T13:30:50;5.45;;;2.45;;
32501;SDS011;18952;52.516;13.460;2023-08-30T13:33:17;4.10;;;2.30;;
32501;SDS011;18952;52.516;13.460;2023-08-30T13:35:43;2.92;;;1.83;;
32501;SDS011;18952;52.516;13.460;2023-08-30T13:38:15;5.20;;;2.28;;
32501;SDS011;18952;52.516;13.460;2023-08-30T13:40:42;4.82;;;2.13;;
32501;SDS011;18952;52.516;13.460;2023-08-30T13:43:09;4.68;;;1.90;;
32501;SDS011;18952;52.516;13.460;2023-08-30T13:45:36;2.47;;;1.85;;
32501;SDS011;18952;52.516;13.460;2023-08-30T13:48:03;3.08;;;2.08;;
32501;SDS011;18952;52.516;13.460;2023-08-30T13:50:30;3.72;;;1.95;;
32501;SDS011;18952;52.516;13.460;2023-08-30T13:52:57;3.15;;;1.75;;
32501;SDS011;18952;52.516;13.460;2023-08-30T13:55:25;3.30;;;1.80;;
32501;SDS011;18952;52.516;13.460;2023-08-30T13:57:51;5.78;;;2.10;;
32501;SDS011;18952;52.516;13.460;2023-08-30T14:00:18;3.85;;;1.70;;
32501;SDS011;18952;52.516;13.460;2023-08-30T14:02:45;2.88;;;2.05;;
32501;SDS011;18952;52.516;13.460;2023-08-30T14:05:12;5.35;;;2.30;;
32501;SDS011;18952;52.516;13.460;2023-08-30T14:07:39;8.90;;;2.30;;
32501;SDS011;18952;52.516;13.460;2023-08-30T14:10:06;3.90;;;2.30;;
32501;SDS011;18952;52.516;13.460;2023-08-30T14:12:33;2.72;;;2.10;;
32501;SDS011;18952;52.516;13.460;2023-08-30T14:15:00;2.42;;;1.75;;
32501;SDS011;18952;52.516;13.460;2023-08-30T14:17:27;7.45;;;2.20;;
32501;SDS011;18952;52.516;13.460;2023-08-30T14:19:54;4.15;;;2.20;;
32501;SDS011;18952;52.516;13.460;2023-08-30T14:22:21;2.35;;;1.83;;
32501;SDS011;18952;52.516;13.460;2023-08-30T14:24:48;6.80;;;3.53;;
32501;SDS011;18952;52.516;13.460;2023-08-30T14:27:34;3.47;;;2.28;;
32501;SDS011;18952;52.516;13.460;2023-08-30T14:30:01;3.58;;;1.52;;
32501;SDS011;18952;52.516;13.460;2023-08-30T14:32:28;3.17;;;2.03;;
32501;SDS011;18952;52.516;13.460;2023-08-30T14:34:55;5.80;;;2.10;;
32501;SDS011;18952;52.516;13.460;2023-08-30T14:37:22;5.57;;;3.25;;
32501;SDS011;18952;52.516;13.460;2023-08-30T14:39:51;3.20;;;2.22;;
32501;SDS011;18952;52.516;13.460;2023-08-30T14:42:19;9.63;;;2.05;;
32501;SDS011;18952;52.516;13.460;2023-08-30T14:44:50;6.43;;;1.90;;
32501;SDS011;18952;52.516;13.460;2023-08-30T14:47:17;3.67;;;1.90;;
32501;SDS011;18952;52.516;13.460;2023-08-30T14:49:44;4.95;;;2.03;;
32501;SDS011;18952;52.516;13.460;2023-08-30T14:52:12;4.18;;;1.73;;
32501;SDS011;18952;52.516;13.460;2023-08-30T14:54:39;2.38;;;2.03;;
32501;SDS011;18952;52.516;13.460;2023-08-30T14:57:06;3.40;;;2.10;;